This is the latest recevied weather packets stored in our database for station/object WA4IKQ. If no packets are shown the sender has not sent any weather packets the latest 10 day(s).
| Time | Temp. | Humidity | Pressure | Rain* | Wind** | Luminosity | Snow |
|---|---|---|---|---|---|---|---|
| 1777585138 | 31.67° C | 40% | 1008.8 hPa | 0 mm | 2.68 m/s, 215° | - | - |
| 1777585104 | 31.67° C | 40% | 1008.8 hPa | 0 mm | 2.68 m/s, 215° | - | - |
| 1777585071 | 31.67° C | 40% | 1008.8 hPa | 0 mm | 2.68 m/s, 215° | - | - |
| 1777584884 | 31.67° C | 40% | 1008.7 hPa | 0 mm | 1.79 m/s, 281° | - | - |
| 1777584771 | 31.67° C | 40% | 1008.7 hPa | 0 mm | 1.79 m/s, 281° | - | - |
| 1777584560 | 31.67° C | 40% | 1008.8 hPa | 0 mm | 2.68 m/s, 311° | - | - |
| 1777584529 | 31.67° C | 40% | 1008.8 hPa | 0 mm | 2.68 m/s, 311° | - | - |
| 1777584471 | 31.67° C | 40% | 1008.8 hPa | 0 mm | 2.68 m/s, 311° | - | - |
| 1777584207 | 32.22° C | 39% | 1008.8 hPa | 0 mm | 2.68 m/s, 256° | - | - |
| 1777584174 | 32.22° C | 39% | 1008.8 hPa | 0 mm | 2.68 m/s, 256° | - | - |
| 1777583934 | 32.22° C | 39% | 1008.9 hPa | 0 mm | 2.68 m/s, 239° | - | - |
| 1777583877 | 32.22° C | 39% | 1008.9 hPa | 0 mm | 2.68 m/s, 239° | - | - |
| 1777583637 | 32.22° C | 39% | 1009 hPa | 0 mm | 0.89 m/s, 264° | - | - |
| 1777583603 | 32.22° C | 39% | 1009 hPa | 0 mm | 0.89 m/s, 264° | - | - |
| 1777583569 | 32.22° C | 39% | 1009 hPa | 0 mm | 0.89 m/s, 264° | - | - |
| 1777583331 | 32.22° C | 38% | 1009.1 hPa | 0 mm | 0.89 m/s, 262° | - | - |
| 1777583270 | 32.22° C | 38% | 1009.1 hPa | 0 mm | 0.89 m/s, 262° | - | - |
| 1777583057 | 32.22° C | 37% | 1009.1 hPa | 0 mm | 4.02 m/s, 207° | - | - |
| 1777582432 | 32.22° C | 39% | 1009.1 hPa | 0 mm | 2.24 m/s, 201° | - | - |
| 1777582375 | 32.22° C | 39% | 1009.1 hPa | 0 mm | 2.24 m/s, 201° | - | - |
| 1777581826 | 32.22° C | 37% | 1009.2 hPa | 0 mm | 1.34 m/s, 229° | - | - |
| 1777581772 | 32.22° C | 37% | 1009.2 hPa | 0 mm | 1.34 m/s, 229° | - | - |
| 1777581539 | 32.22° C | 38% | 1009.1 hPa | 0 mm | 2.68 m/s, 225° | - | - |
| 1777581468 | 32.22° C | 38% | 1009.1 hPa | 0 mm | 2.68 m/s, 225° | - | - |
| 1777580901 | 32.78° C | 36% | 1009.2 hPa | 0 mm | 2.24 m/s, 228° | - | - |
* Rain latest hour (hover to see other rain measurements)
** Current wind speed in m/s (hover to see current wind gust speed)